Date,TemperatureHighF,TemperatureAvgF,TemperatureLowF,DewpointHighF,DewpointAvgF,DewpointLowF,HumidityHigh,HumidityAvg,HumidityLow,PressureMaxIn,PressureMinIn,WindSpeedMaxMPH,WindSpeedAvgMPH,GustSpeedMaxMPH,PrecipitationSumIn
2013-1-1,48,41,30,34,27,20,96,61,36,30.32,30.24,18,8,19,0.00
2013-1-2,52,44,34,29,24,19,76,47,36,30.28,30.17,18,6,20,0.00
2013-1-3,52,42,33,36,29,24,89,61,44,30.30,30.18,10,3,10,0.00
2013-1-4,53,43,35,36,31,28,86,63,43,30.32,30.22,11,3,11,0.00
2013-1-5,44,40,32,42,37,29,99,91,77,30.28,30.10,18,2,18,0.49
2013-1-6,46,41,37,42,39,36,99,93,83,30.21,30.10,18,4,20,0.04
2013-1-7,55,47,36,48,42,34,98,84,72,30.28,30.19,11,2,12,0.00
2013-1-8,61,50,41,50,44,40,99,83,52,30.25,30.14,14,3,14,0.00
2013-1-9,45,41,34,45,40,31,100,97,87,30.17,29.98,23,3,23,0.06
2013-1-10,45,36,29,34,30,24,96,77,55,30.21,30.07,13,2,13,0.00
2013-1-11,44,36,27,36,30,23,93,78,62,30.27,30.16,13,2,13,0.00
2013-1-12,43,36,27,30,24,17,91,64,46,30.27,30.17,17,4,17,0.00
2013-1-13,44,37,26,18,13,9,65,38,26,30.29,30.21,24,6,30,0.00
2013-1-14,49,41,34,23,14,8,55,34,26,30.42,30.27,32,8,32,0.00
2013-1-15,52,40,31,34,26,17,89,57,35,30.51,30.42,16,3,19,0.00
2013-1-16,58,51,40,38,27,23,72,40,28,30.45,30.27,26,7,26,0.00
2013-1-17,62,56,50,29,21,13,37,26,20,30.27,30.18,27,10,27,0.00
2013-1-18,61,54,49,30,22,17,34,29,24,30.25,30.16,20,8,20,0.00
2013-1-19,60,53,43,30,21,15,51,30,24,30.28,30.18,22,7,22,0.00
2013-1-20,61,51,37,30,23,15,64,36,22,30.25,30.16,16,5,16,0.00
2013-1-21,62,53,37,34,25,18,65,34,23,30.21,30.13,18,6,19,0.00
2013-1-22,59,51,44,39,29,21,71,45,30,30.14,30.03,13,4,13,0.00
2013-1-23,54,47,44,48,41,33,99,81,48,30.12,29.99,11,2,12,0.51
2013-1-24,55,50,47,51,48,47,99,93,88,30.21,30.09,14,5,14,0.02
2013-1-25,58,52,47,52,49,46,97,91,81,30.21,30.06,9,2,10,0.00
2013-1-26,50,45,38,49,41,34,99,85,64,30.06,29.96,17,3,17,0.01
2013-1-27,49,39,30,34,31,27,97,74,51,30.20,30.04,12,2,12,0.00
2013-1-28,51,41,31,40,34,29,94,77,61,30.31,30.17,11,2,11,0.00
2013-1-29,59,47,33,41,35,31,94,66,41,30.39,30.30,19,4,19,0.00
2013-1-30,65,54,41,46,39,31,92,58,28,30.35,30.26,22,6,22,0.00
2013-1-31,62,52,41,46,38,32,95,62,43,30.30,30.20,16,4,16,0.00